Time;durP1;ratioP1;P1;durP2;ratioP2;P2;SDS_P1;SDS_P2;PMS_P1;PMS_P2;Temp;Humidity;BMP_temperature;BMP_pressure;BME280_temperature;BME280_humidity;BME280_pressure;Samples;Min_cycle;Max_cycle;Signal;HPM_P1;HPM_P2
2022/05/01 00:00:44;;;;;;;18.23;16.33;;;;;20.60;101259.00;;;;2069834;28;20218;-46
2022/05/01 00:01:44;;;;;;;20.70;18.53;;;;;20.60;101254.00;;;;2070445;28;20218;-46
2022/05/01 00:02:45;;;;;;;17.63;15.83;;;;;20.60;101255.00;;;;2069641;28;20214;-46
2022/05/01 00:03:45;;;;;;;22.33;19.03;;;;;20.60;101258.00;;;;2069690;28;20339;-46
2022/05/01 00:04:45;;;;;;;20.10;16.40;;;;;20.60;101254.00;;;;2070125;28;20221;-46
2022/05/01 00:05:46;;;;;;;21.37;16.77;;;;;20.60;101259.00;;;;2069250;28;20222;-47
2022/05/01 00:06:46;;;;;;;18.73;16.73;;;;;20.60;101261.00;;;;2070380;28;20225;-46
2022/05/01 00:07:46;;;;;;;21.40;17.77;;;;;20.60;101254.00;;;;2069965;28;20309;-46
2022/05/01 00:08:47;;;;;;;18.30;15.40;;;;;20.60;101254.00;;;;2070066;28;20214;-46
2022/05/01 00:09:47;;;;;;;18.47;15.57;;;;;20.60;101255.00;;;;2070001;28;20260;-46
2022/05/01 00:10:48;;;;;;;18.90;16.47;;;;;20.60;101266.00;;;;2070076;28;20229;-45
2022/05/01 00:11:48;;;;;;;17.23;15.43;;;;;20.60;101254.00;;;;2070161;28;20593;-46
2022/05/01 00:12:49;;;;;;;17.13;15.27;;;;;20.50;101246.00;;;;2070213;28;20214;-46
2022/05/01 00:13:50;;;;;;;17.33;15.47;;;;;20.60;101250.00;;;;2078322;28;20769;-46
2022/05/01 00:14:50;;;;;;;17.10;15.30;;;;;20.50;101248.00;;;;2078160;28;20221;-46
2022/05/01 00:15:50;;;;;;;15.97;14.30;;;;;20.60;101254.00;;;;2071145;28;20463;-46
2022/05/01 00:16:51;;;;;;;16.83;15.00;;;;;20.60;101248.00;;;;2070114;28;20293;-46
2022/05/01 00:17:51;;;;;;;16.80;15.00;;;;;20.60;101253.00;;;;2070322;28;20995;-46
2022/05/01 00:18:51;;;;;;;16.90;15.20;;;;;20.60;101247.00;;;;2070110;28;20699;-46
2022/05/01 00:19:52;;;;;;;15.47;13.73;;;;;20.50;101245.00;;;;2069984;28;20206;-46
2022/05/01 00:20:52;;;;;;;16.63;14.30;;;;;20.50;101240.00;;;;2070208;28;20215;-46
2022/05/01 00:21:55;;;;;;;16.00;14.40;;;;;20.50;101251.00;;;;2070110;28;20782;-46
2022/05/01 00:22:56;;;;;;;15.82;14.13;;;;;20.50;101252.00;;;;2070287;28;20216;-46
2022/05/01 00:23:56;;;;;;;17.47;14.10;;;;;20.50;101246.00;;;;2070229;28;20210;-46
2022/05/01 00:24:57;;;;;;;17.40;15.23;;;;;20.50;101247.00;;;;2069961;28;20574;-45
2022/05/01 00:25:58;;;;;;;15.70;13.73;;;;;20.50;101248.00;;;;2069359;28;20702;-46
2022/05/01 00:26:59;;;;;;;16.50;14.10;;;;;20.50;101250.00;;;;2069289;28;21292;-46
2022/05/01 00:27:59;;;;;;;15.13;13.52;;;;;20.50;101241.00;;;;2069361;28;20457;-45
2022/05/01 00:29:06;;;;;;;16.07;12.93;;;;;20.50;101243.00;;;;2070139;28;20715;-46
2022/05/01 00:30:07;;;;;;;14.90;12.48;;;;;20.50;101243.00;;;;2069878;28;20210;-46
2022/05/01 00:31:07;;;;;;;14.57;13.13;;;;;20.50;101244.00;;;;2071619;28;20245;-45
2022/05/01 00:32:08;;;;;;;14.20;12.80;;;;;20.50;101249.00;;;;2078700;28;20205;-46
2022/05/01 00:37:04;;;;;;;16.70;14.45;;;;;20.50;101242.00;;;;2070888;28;20214;-47
2022/05/01 00:38:05;;;;;;;15.13;13.53;;;;;20.50;101249.00;;;;2071363;28;20226;-46
2022/05/01 00:39:06;;;;;;;15.50;13.90;;;;;20.50;101248.00;;;;2071620;28;20256;-46
2022/05/01 00:40:07;;;;;;;14.55;12.63;;;;;20.50;101242.00;;;;2071358;28;20333;-46
2022/05/01 00:41:07;;;;;;;14.57;12.40;;;;;20.40;101246.00;;;;2071552;28;20640;-46
2022/05/01 00:42:08;;;;;;;14.60;12.40;;;;;20.50;101248.00;;;;2071257;28;20214;-47
2022/05/01 00:43:08;;;;;;;13.50;12.13;;;;;20.50;101245.00;;;;2072901;28;20292;-46
2022/05/01 00:44:16;;;;;;;13.80;12.40;;;;;20.50;101250.00;;;;2079464;28;20229;-46
2022/05/01 00:45:16;;;;;;;14.85;12.35;;;;;20.50;101241.00;;;;2079211;28;20210;-47
2022/05/01 00:46:17;;;;;;;13.53;12.13;;;;;20.50;101244.00;;;;2073338;28;20218;-45
2022/05/01 00:47:18;;;;;;;14.50;13.00;;;;;20.50;101253.00;;;;2070542;28;20273;-50
2022/05/01 00:48:18;;;;;;;13.03;11.73;;;;;20.50;101247.00;;;;2071400;28;20453;-49
2022/05/01 00:49:23;;;;;;;12.60;11.33;;;;;20.50;101257.00;;;;2071300;28;20233;-47
2022/05/01 00:50:24;;;;;;;13.68;11.57;;;;;20.50;101245.00;;;;2071585;28;20233;-47
2022/05/01 00:51:25;;;;;;;12.57;11.27;;;;;20.50;101238.00;;;;2071450;28;20202;-47
2022/05/01 00:52:25;;;;;;;12.67;11.40;;;;;20.40;101243.00;;;;2070233;28;20209;-47
2022/05/01 00:53:26;;;;;;;13.10;11.80;;;;;20.40;101251.00;;;;2070773;28;20879;-47
2022/05/01 00:54:27;;;;;;;13.13;11.73;;;;;20.40;101248.00;;;;2062624;28;20211;-45
2022/05/01 00:55:28;;;;;;;13.32;11.93;;;;;20.40;101250.00;;;;2069836;28;20210;-46
2022/05/01 00:56:29;;;;;;;13.13;11.83;;;;;20.40;101242.00;;;;2071433;28;20664;-47
2022/05/01 00:57:30;;;;;;;12.75;11.45;;;;;20.40;101237.00;;;;2070628;28;20301;-47
2022/05/01 00:58:30;;;;;;;12.30;11.10;;;;;20.40;101245.00;;;;2070909;28;20737;-46
2022/05/01 00:59:30;;;;;;;12.43;11.13;;;;;20.40;101245.00;;;;2070340;28;20249;-46
2022/05/01 01:00:34;;;;;;;11.60;10.27;;;;;20.40;101244.00;;;;2071312;28;20226;-46
2022/05/01 01:01:35;;;;;;;12.27;11.07;;;;;20.40;101238.00;;;;2071486;28;20214;-46
2022/05/01 01:02:35;;;;;;;12.60;11.30;;;;;20.40;101239.00;;;;2073694;28;20689;-46
2022/05/01 01:03:35;;;;;;;11.10;9.87;;;;;20.40;101240.00;;;;2079701;28;20213;-46
2022/05/01 01:04:36;;;;;;;12.10;10.90;;;;;20.40;101238.00;;;;2079315;28;20222;-46
2022/05/01 01:05:36;;;;;;;11.83;10.37;;;;;20.40;101240.00;;;;2078610;28;20217;-46
2022/05/01 01:06:37;;;;;;;12.10;11.00;;;;;20.40;101238.00;;;;2079495;28;20223;-46
2022/05/01 01:07:38;;;;;;;11.70;10.50;;;;;20.40;101243.00;;;;2079407;28;20264;-46
2022/05/01 01:08:39;;;;;;;11.33;10.23;;;;;20.40;101239.00;;;;2072278;28;20210;-46
2022/05/01 01:09:39;;;;;;;11.43;10.30;;;;;20.40;101236.00;;;;2070566;28;20989;-46
2022/05/01 01:10:39;;;;;;;11.40;10.20;;;;;20.40;101238.00;;;;2070583;28;20214;-46
2022/05/01 01:11:40;;;;;;;12.00;10.60;;;;;20.40;101237.00;;;;2079319;28;20214;-46
2022/05/01 01:12:55;;;;;;;10.50;9.50;;;;;20.40;101231.00;;;;2079521;28;20256;-46
2022/05/01 01:13:56;;;;;;;11.27;10.23;;;;;20.40;101234.00;;;;2082993;28;20209;-46
2022/05/01 01:14:56;;;;;;;10.50;9.40;;;;;20.40;101238.00;;;;2078505;28;20308;-46
2022/05/01 01:15:56;;;;;;;11.50;10.40;;;;;20.40;101233.00;;;;2069770;28;20202;-46
2022/05/01 01:16:57;;;;;;;11.87;10.00;;;;;20.40;101237.00;;;;2071243;28;20214;-47
2022/05/01 01:17:58;;;;;;;12.07;10.77;;;;;20.40;101238.00;;;;2073669;28;20209;-48
2022/05/01 01:18:58;;;;;;;11.10;10.00;;;;;20.40;101228.00;;;;2078648;28;20461;-47
2022/05/01 01:19:59;;;;;;;10.60;9.60;;;;;20.40;101247.00;;;;2079309;28;20829;-47
2022/05/01 01:20:59;;;;;;;10.73;9.73;;;;;20.40;101241.00;;;;2079235;28;20210;-47
2022/05/01 01:21:59;;;;;;;11.07;9.90;;;;;20.40;101244.00;;;;2079502;28;20287;-46
2022/05/01 01:23:00;;;;;;;10.20;9.20;;;;;20.40;101242.00;;;;2078776;28;20205;-46
2022/05/01 01:24:06;;;;;;;10.30;9.30;;;;;20.40;101243.00;;;;2078642;28;20283;-47
2022/05/01 01:25:09;;;;;;;10.88;9.80;;;;;20.40;101245.00;;;;2078476;28;20214;-46
2022/05/01 01:26:10;;;;;;;10.65;9.65;;;;;20.40;101246.00;;;;2069351;28;20293;-46
2022/05/01 01:27:10;;;;;;;9.43;8.53;;;;;20.40;101242.00;;;;2060653;28;20215;-46
2022/05/01 01:28:10;;;;;;;11.20;10.07;;;;;20.40;101243.00;;;;2061669;28;20215;-46
2022/05/01 01:31:49;;;;;;;10.25;9.15;;;;;20.30;101240.00;;;;2078761;28;20210;-46
2022/05/01 01:32:50;;;;;;;9.47;8.67;;;;;20.30;101241.00;;;;2077149;28;20543;-47
2022/05/01 01:33:51;;;;;;;10.27;9.27;;;;;20.30;101235.00;;;;2077922;28;20538;-46
2022/05/01 01:34:52;;;;;;;9.75;8.85;;;;;20.30;101242.00;;;;2070228;28;20461;-46
2022/05/01 01:35:52;;;;;;;9.10;8.20;;;;;20.40;101235.00;;;;2077459;28;20271;-46
2022/05/01 01:36:52;;;;;;;9.20;8.23;;;;;20.30;101251.00;;;;2079161;28;20226;-46
2022/05/01 01:37:53;;;;;;;9.80;8.87;;;;;20.30;101267.00;;;;2078382;28;20694;-46
2022/05/01 01:38:55;;;;;;;11.13;9.97;;;;;20.30;101239.00;;;;2078392;28;20779;-47
2022/05/01 01:39:55;;;;;;;9.00;8.10;;;;;20.30;101245.00;;;;2078913;28;20452;-46
2022/05/01 01:40:58;;;;;;;9.70;8.63;;;;;20.30;101245.00;;;;2070190;28;20902;-47
2022/05/01 01:41:58;;;;;;;9.45;8.60;;;;;20.30;101240.00;;;;2070068;28;20378;-47
2022/05/01 01:42:58;;;;;;;11.20;10.10;;;;;20.30;101239.00;;;;2078546;28;20221;-47
2022/05/01 01:43:59;;;;;;;9.90;8.90;;;;;20.30;101236.00;;;;2076476;28;20249;-47
2022/05/01 01:44:59;;;;;;;9.50;8.60;;;;;20.30;101247.00;;;;2070653;28;20234;-47
2022/05/01 01:46:00;;;;;;;8.77;7.93;;;;;20.30;101243.00;;;;2069466;28;20226;-47
2022/05/01 01:47:00;;;;;;;9.30;8.40;;;;;20.30;101254.00;;;;2070278;28;20218;-47
2022/05/01 01:48:14;;;;;;;9.97;8.97;;;;;20.30;101254.00;;;;2068441;28;20622;-47
2022/05/01 01:49:14;;;;;;;9.25;8.23;;;;;20.30;101246.00;;;;2074892;28;20315;-47
2022/05/01 01:50:20;;;;;;;9.00;8.10;;;;;20.30;101243.00;;;;2078918;28;20340;-47
2022/05/01 01:51:21;;;;;;;8.75;7.95;;;;;20.30;101243.00;;;;2079205;28;20213;-47
2022/05/01 01:52:21;;;;;;;9.10;8.30;;;;;20.30;101244.00;;;;2079107;28;20218;-46
2022/05/01 01:53:21;;;;;;;9.27;8.37;;;;;20.30;101241.00;;;;2078861;28;20271;-46
2022/05/01 01:54:22;;;;;;;9.47;8.40;;;;;20.30;101244.00;;;;2078841;28;20214;-46
2022/05/01 01:55:22;;;;;;;9.10;7.90;;;;;20.30;101242.00;;;;2078588;28;20256;-46
2022/05/01 01:56:22;;;;;;;9.07;8.27;;;;;20.30;101245.00;;;;2078979;28;20212;-47
2022/05/01 01:57:23;;;;;;;9.53;8.53;;;;;20.30;101242.00;;;;2078989;28;20233;-46
2022/05/01 01:58:26;;;;;;;8.50;7.70;;;;;20.30;101242.00;;;;2079143;28;20237;-46
2022/05/01 01:59:27;;;;;;;10.10;6.97;;;;;20.30;101246.00;;;;2071772;28;20217;-46
2022/05/01 02:00:27;;;;;;;8.40;7.60;;;;;20.30;101247.00;;;;2070645;28;20687;-46
2022/05/01 02:01:27;;;;;;;8.40;7.60;;;;;20.30;101246.00;;;;2070900;28;20221;-47
2022/05/01 02:02:28;;;;;;;8.70;7.80;;;;;20.30;101239.00;;;;2069993;28;20249;-46
2022/05/01 02:03:28;;;;;;;8.87;7.97;;;;;20.30;101243.00;;;;2070905;28;20222;-46
2022/05/01 02:04:28;;;;;;;11.00;8.77;;;;;20.30;101235.00;;;;2070596;28;20269;-46
2022/05/01 02:05:29;;;;;;;9.47;7.97;;;;;20.30;101234.00;;;;2069758;28;20349;-46
2022/05/01 02:06:29;;;;;;;8.63;7.93;;;;;20.30;101234.00;;;;2072691;28;20222;-46
2022/05/01 02:07:30;;;;;;;8.63;7.73;;;;;20.30;101237.00;;;;2078769;28;20218;-46
2022/05/01 02:08:31;;;;;;;8.50;7.72;;;;;20.30;101236.00;;;;2078844;28;20218;-46
2022/05/01 02:09:36;;;;;;;9.07;8.17;;;;;20.30;101231.00;;;;2078597;28;20229;-51
2022/05/01 02:10:36;;;;;;;9.07;8.05;;;;;20.20;101237.00;;;;2078668;28;20610;-47
2022/05/01 02:11:37;;;;;;;9.30;7.60;;;;;20.30;101231.00;;;;2073329;28;20308;-47
2022/05/01 02:12:37;;;;;;;9.13;8.13;;;;;20.30;101233.00;;;;2078165;28;20704;-47
2022/05/01 02:13:38;;;;;;;8.97;8.20;;;;;20.30;101232.00;;;;2078693;28;20601;-46
2022/05/01 02:14:39;;;;;;;8.17;7.37;;;;;20.30;101227.00;;;;2077857;28;20224;-46
2022/05/01 02:15:39;;;;;;;8.10;7.30;;;;;20.20;101229.00;;;;2077412;28;20448;-46
2022/05/01 02:16:40;;;;;;;8.33;7.53;;;;;20.30;101223.00;;;;2078789;28;20217;-47
2022/05/01 02:17:41;;;;;;;7.87;7.17;;;;;20.20;101234.00;;;;2078864;28;20568;-47
2022/05/01 02:18:42;;;;;;;8.68;7.88;;;;;20.20;101225.00;;;;2079011;28;20222;-46
2022/05/01 02:19:42;;;;;;;7.82;7.13;;;;;20.20;101224.00;;;;2078842;28;20725;-46
2022/05/01 02:22:02;;;;;;;8.18;7.35;;;;;20.20;101235.00;;;;2077250;28;20221;-46
2022/05/01 02:23:02;;;;;;;8.50;7.70;;;;;20.20;101229.00;;;;2078832;28;20213;-46
2022/05/01 02:24:05;;;;;;;7.97;7.20;;;;;20.20;101226.00;;;;2078900;28;20237;-46
2022/05/01 02:25:07;;;;;;;7.78;7.07;;;;;20.20;101228.00;;;;2077306;28;20209;-47
2022/05/01 02:26:07;;;;;;;8.05;7.25;;;;;20.20;101228.00;;;;2077374;28;20214;-47
2022/05/01 02:27:08;;;;;;;7.60;6.90;;;;;20.20;101229.00;;;;2078348;28;20227;-47
2022/05/01 02:28:08;;;;;;;7.80;7.10;;;;;20.20;101231.00;;;;2076267;28;20213;-47
2022/05/01 02:29:09;;;;;;;7.13;6.50;;;;;20.20;101224.00;;;;2078634;28;20685;-47
2022/05/01 02:30:10;;;;;;;7.53;6.70;;;;;20.20;101223.00;;;;2078451;28;20202;-47
2022/05/01 02:31:11;;;;;;;7.13;6.50;;;;;20.20;101228.00;;;;2078863;28;20698;-47
2022/05/01 02:32:12;;;;;;;8.18;7.38;;;;;20.20;101228.00;;;;2078744;28;20210;-47
2022/05/01 02:33:13;;;;;;;7.75;6.95;;;;;20.20;101228.00;;;;2078932;28;20564;-47
2022/05/01 02:34:13;;;;;;;7.77;7.07;;;;;20.20;101228.00;;;;2078694;28;20202;-46
2022/05/01 02:35:13;;;;;;;7.77;6.93;;;;;20.20;101222.00;;;;2071350;28;20206;-46
2022/05/01 02:36:16;;;;;;;8.20;7.40;;;;;20.20;101225.00;;;;2070022;28;20244;-47
2022/05/01 02:37:16;;;;;;;7.05;6.45;;;;;20.20;101223.00;;;;2070503;28;20214;-46
2022/05/01 02:38:17;;;;;;;7.80;7.00;;;;;20.20;101226.00;;;;2070295;28;20759;-46
2022/05/01 02:39:20;;;;;;;7.43;6.83;;;;;20.20;101225.00;;;;2072258;28;20691;-47
2022/05/01 02:40:20;;;;;;;6.72;6.00;;;;;20.20;101221.00;;;;2078556;28;20209;-46
2022/05/01 02:41:21;;;;;;;7.07;6.53;;;;;20.20;101219.00;;;;2078598;28;20653;-46
2022/05/01 02:42:22;;;;;;;8.43;7.63;;;;;20.20;101215.00;;;;2078610;28;20620;-46
2022/05/01 02:43:22;;;;;;;7.13;6.43;;;;;20.20;101224.00;;;;2078786;28;20205;-46
2022/05/01 02:44:23;;;;;;;7.90;7.13;;;;;20.20;101221.00;;;;2078785;28;20224;-46
2022/05/01 02:45:23;;;;;;;7.47;6.87;;;;;20.20;101212.00;;;;2077732;28;20234;-46
2022/05/01 02:46:25;;;;;;;7.20;6.60;;;;;20.20;101222.00;;;;2078662;28;20220;-46
2022/05/01 02:47:26;;;;;;;7.50;6.82;;;;;20.20;101219.00;;;;2078478;28;20218;-46
2022/05/01 02:48:26;;;;;;;6.73;6.13;;;;;20.20;101224.00;;;;2078639;28;20377;-46
2022/05/01 02:49:26;;;;;;;6.80;6.20;;;;;20.20;101212.00;;;;2078547;28;20690;-46
2022/05/01 02:50:27;;;;;;;7.20;6.60;;;;;20.20;101216.00;;;;2078569;28;20661;-47
2022/05/01 02:51:27;;;;;;;6.67;6.10;;;;;20.20;101213.00;;;;2078700;28;20586;-46
2022/05/01 02:52:27;;;;;;;7.37;6.70;;;;;20.20;101217.00;;;;2078398;28;20771;-46
2022/05/01 02:53:28;;;;;;;7.77;7.07;;;;;20.20;101214.00;;;;2077977;28;21149;-46
2022/05/01 02:54:28;;;;;;;7.40;6.70;;;;;20.20;101208.00;;;;2078680;28;20267;-46
2022/05/01 02:55:28;;;;;;;7.10;6.50;;;;;20.20;101216.00;;;;2077636;28;20225;-46
2022/05/01 02:56:30;;;;;;;6.73;6.13;;;;;20.20;101210.00;;;;2078608;28;20217;-46
2022/05/01 02:57:30;;;;;;;7.30;6.70;;;;;20.20;101211.00;;;;2078590;28;20988;-46
2022/05/01 02:58:31;;;;;;;7.13;6.47;;;;;20.20;101214.00;;;;2078696;28;20237;-46
2022/05/01 02:59:31;;;;;;;7.20;6.50;;;;;20.20;101214.00;;;;2078576;28;20270;-46
2022/05/01 03:00:33;;;;;;;7.50;6.80;;;;;20.20;101213.00;;;;2078637;28;20274;-46
2022/05/01 03:01:33;;;;;;;6.88;6.28;;;;;20.20;101212.00;;;;2078543;28;20222;-46
2022/05/01 03:02:34;;;;;;;7.50;6.70;;;;;20.10;101217.00;;;;2078541;28;20213;-46
2022/05/01 03:03:34;;;;;;;6.67;6.07;;;;;20.20;101216.00;;;;2078604;28;20224;-46
2022/05/01 03:04:35;;;;;;;6.70;6.10;;;;;20.10;101226.00;;;;2076897;28;20221;-46
2022/05/01 03:05:36;;;;;;;7.25;6.47;;;;;20.10;101215.00;;;;2077719;28;20225;-46
2022/05/01 03:06:36;;;;;;;6.70;6.10;;;;;20.10;101215.00;;;;2078177;28;20371;-46
2022/05/01 03:07:36;;;;;;;7.63;7.03;;;;;20.20;101216.00;;;;2070232;28;20312;-46
2022/05/01 03:08:37;;;;;;;6.73;6.13;;;;;20.20;101224.00;;;;2070714;28;20217;-46
2022/05/01 03:09:38;;;;;;;6.97;6.37;;;;;20.10;101220.00;;;;2070485;28;20210;-46
2022/05/01 03:10:39;;;;;;;7.40;6.80;;;;;20.10;101218.00;;;;2070222;28;20314;-46
2022/05/01 03:11:39;;;;;;;6.88;6.30;;;;;20.10;101218.00;;;;2070391;28;20220;-46
2022/05/01 03:12:39;;;;;;;6.87;6.27;;;;;20.10;101214.00;;;;2070484;28;20224;-46
2022/05/01 03:13:40;;;;;;;6.90;6.20;;;;;20.10;101224.00;;;;2074193;28;20221;-46
2022/05/01 03:14:40;;;;;;;6.83;6.23;;;;;20.10;101213.00;;;;2069609;28;20214;-46
2022/05/01 03:15:40;;;;;;;7.30;6.60;;;;;20.10;101210.00;;;;2067257;28;20249;-46
2022/05/01 03:16:41;;;;;;;6.30;5.80;;;;;20.10;101208.00;;;;2070512;28;20221;-46
2022/05/01 03:22:56;;;;;;;7.30;6.70;;;;;20.10;101204.00;;;;2078473;28;20212;-47
2022/05/01 03:23:57;;;;;;;6.43;5.93;;;;;20.10;101203.00;;;;2078583;28;20202;-46
2022/05/01 03:24:58;;;;;;;7.30;6.60;;;;;20.10;101196.00;;;;2077067;28;20206;-46
2022/05/01 03:25:58;;;;;;;6.40;5.80;;;;;20.10;101203.00;;;;2077562;28;20702;-46
2022/05/01 03:26:58;;;;;;;6.47;5.90;;;;;20.10;101203.00;;;;2078408;28;20480;-46
2022/05/01 03:27:59;;;;;;;6.17;5.60;;;;;20.10;101201.00;;;;2076362;28;20267;-46
2022/05/01 03:28:59;;;;;;;6.60;6.00;;;;;20.10;101202.00;;;;2078637;28;20221;-47
2022/05/01 03:30:19;;;;;;;6.50;6.00;;;;;20.10;101201.00;;;;2078531;28;20217;-46
2022/05/01 03:31:19;;;;;;;6.47;5.80;;;;;20.10;101195.00;;;;2078298;28;20551;-46
2022/05/01 03:32:19;;;;;;;6.40;5.80;;;;;20.10;101198.00;;;;2078580;28;20243;-46
2022/05/01 03:33:21;;;;;;;6.80;6.30;;;;;20.10;101202.00;;;;2078707;28;20217;-47
2022/05/01 03:34:23;;;;;;;6.90;6.20;;;;;20.10;101200.00;;;;2078567;28;20220;-47
2022/05/01 03:35:24;;;;;;;6.90;6.20;;;;;20.10;101197.00;;;;2077545;28;20201;-46
2022/05/01 03:36:26;;;;;;;6.53;6.00;;;;;20.10;101201.00;;;;2078199;28;20682;-47
2022/05/01 03:37:26;;;;;;;6.15;5.65;;;;;20.10;101201.00;;;;2078427;28;20213;-46
2022/05/01 03:38:26;;;;;;;6.30;5.70;;;;;19.90;101200.00;;;;2078649;28;20298;-47
2022/05/01 03:39:27;;;;;;;6.07;5.57;;;;;20.10;101207.00;;;;2078157;28;20216;-46
2022/05/01 03:40:28;;;;;;;5.40;5.00;;;;;20.10;101206.00;;;;2078421;28;20216;-46
2022/05/01 03:41:28;;;;;;;6.87;6.27;;;;;20.10;101202.00;;;;2078689;28;20249;-47
2022/05/01 03:42:28;;;;;;;5.93;5.43;;;;;20.10;101192.00;;;;2078480;28;20226;-46
2022/05/01 03:43:29;;;;;;;6.07;5.53;;;;;20.00;101198.00;;;;2076271;28;20243;-47
2022/05/01 03:44:29;;;;;;;6.20;5.70;;;;;20.10;101200.00;;;;2078244;28;20256;-46
2022/05/01 03:45:30;;;;;;;6.50;5.90;;;;;20.10;101205.00;;;;2077590;28;20225;-46
2022/05/01 03:46:30;;;;;;;5.90;5.30;;;;;20.00;101206.00;;;;2078780;28;20209;-46
2022/05/01 03:47:32;;;;;;;6.57;5.87;;;;;20.10;101208.00;;;;2078203;28;20213;-46
2022/05/01 03:48:33;;;;;;;6.85;6.25;;;;;20.10;101199.00;;;;2078433;28;20683;-46
2022/05/01 03:49:33;;;;;;;6.33;5.73;;;;;19.90;101197.00;;;;2078373;28;20216;-47
2022/05/01 03:50:34;;;;;;;6.17;5.57;;;;;20.10;101204.00;;;;2078150;28;20228;-46
2022/05/01 03:51:34;;;;;;;5.73;5.33;;;;;20.10;101205.00;;;;2077659;28;20221;-46
2022/05/01 03:52:34;;;;;;;5.00;4.60;;;;;20.10;101194.00;;;;2077865;28;20224;-46
2022/05/01 03:53:36;;;;;;;5.80;5.30;;;;;20.10;101200.00;;;;2078544;28;20237;-46
2022/05/01 03:54:36;;;;;;;5.80;5.30;;;;;20.10;101202.00;;;;2078373;28;20217;-46
2022/05/01 03:55:36;;;;;;;5.47;4.97;;;;;20.10;101200.00;;;;2077722;28;20634;-46
2022/05/01 03:56:37;;;;;;;6.43;5.93;;;;;20.10;101200.00;;;;2070776;28;20677;-46
2022/05/01 03:57:37;;;;;;;5.30;4.80;;;;;20.00;101203.00;;;;2070380;28;20206;-46
2022/05/01 03:58:38;;;;;;;5.90;5.33;;;;;20.10;101198.00;;;;2070258;28;20218;-47
2022/05/01 03:59:38;;;;;;;5.90;5.40;;;;;20.00;101205.00;;;;2070532;28;20925;-46
2022/05/01 04:00:39;;;;;;;5.90;5.40;;;;;20.00;101198.00;;;;2069544;28;20692;-46
2022/05/01 04:01:39;;;;;;;6.50;5.90;;;;;20.10;101201.00;;;;2069929;28;20695;-45
2022/05/01 04:02:42;;;;;;;5.90;5.40;;;;;20.00;101204.00;;;;2072368;28;21125;-45
2022/05/01 04:03:43;;;;;;;6.00;5.40;;;;;20.10;101198.00;;;;2071956;28;20268;-45
2022/05/01 04:04:45;;;;;;;6.10;5.60;;;;;20.00;101205.00;;;;2078255;28;20217;-46
2022/05/01 04:05:46;;;;;;;5.32;4.93;;;;;20.00;101199.00;;;;2078458;28;20237;-46
2022/05/01 04:06:46;;;;;;;7.10;6.47;;;;;20.00;101202.00;;;;2080119;28;20293;-46
2022/05/01 04:07:47;;;;;;;5.97;5.47;;;;;20.00;101204.00;;;;2080016;28;20297;-46
2022/05/01 04:08:47;;;;;;;6.27;5.77;;;;;20.00;101205.00;;;;2080054;28;20363;-47
2022/05/01 04:09:47;;;;;;;6.20;5.70;;;;;20.00;101200.00;;;;2079469;28;20207;-46
2022/05/01 04:10:47;;;;;;;6.20;5.70;;;;;20.00;101203.00;;;;2079995;28;20206;-46
2022/05/01 04:11:48;;;;;;;6.27;5.77;;;;;20.00;101206.00;;;;2080115;28;20218;-46
2022/05/01 04:12:48;;;;;;;5.77;5.27;;;;;20.00;101208.00;;;;2080072;28;20201;-47
2022/05/01 04:13:49;;;;;;;5.33;4.90;;;;;20.00;101207.00;;;;2079977;28;20206;-46
2022/05/01 04:14:50;;;;;;;5.30;4.90;;;;;20.00;101205.00;;;;2074166;28;20679;-46
2022/05/01 04:15:50;;;;;;;6.00;5.50;;;;;20.00;101207.00;;;;2071184;28;20302;-46
2022/05/01 04:16:50;;;;;;;5.93;5.43;;;;;20.00;101207.00;;;;2070852;28;20213;-46
2022/05/01 04:17:51;;;;;;;4.97;4.57;;;;;20.00;101199.00;;;;2071287;28;20257;-46
2022/05/01 04:18:51;;;;;;;5.40;5.00;;;;;20.00;101211.00;;;;2071750;28;20214;-46
2022/05/01 04:19:52;;;;;;;5.80;5.33;;;;;20.00;101207.00;;;;2074503;28;20271;-46
2022/05/01 04:20:52;;;;;;;5.90;5.40;;;;;20.00;101208.00;;;;2079694;28;20206;-46
2022/05/01 04:21:53;;;;;;;5.77;5.27;;;;;20.00;101207.00;;;;2079617;28;20221;-51
2022/05/01 04:22:53;;;;;;;5.87;5.17;;;;;20.00;101208.00;;;;2079960;28;20210;-50
2022/05/01 04:23:53;;;;;;;5.80;5.40;;;;;20.00;101208.00;;;;2079924;28;20209;-47
2022/05/01 04:24:54;;;;;;;6.03;5.53;;;;;20.00;101206.00;;;;2079880;28;20562;-47
2022/05/01 04:25:54;;;;;;;5.50;5.03;;;;;20.00;101211.00;;;;2079119;28;20778;-46
2022/05/01 04:26:55;;;;;;;5.73;5.33;;;;;20.00;101206.00;;;;2079747;28;20209;-47
2022/05/01 04:27:57;;;;;;;6.00;5.40;;;;;20.00;101211.00;;;;2079121;28;20834;-47
2022/05/01 04:30:16;;;;;;;5.63;5.20;;;;;20.00;101206.00;;;;2079372;28;20257;-46
2022/05/01 04:31:16;;;;;;;6.53;5.23;;;;;20.00;101201.00;;;;2079169;28;20217;-47
2022/05/01 04:32:20;;;;;;;5.73;5.20;;;;;20.00;101196.00;;;;2079782;28;20279;-46
2022/05/01 04:33:20;;;;;;;5.13;4.72;;;;;20.00;101212.00;;;;2079661;28;20218;-46
2022/05/01 04:34:20;;;;;;;5.63;5.17;;;;;20.00;101206.00;;;;2071595;28;20218;-47
2022/05/01 04:35:33;;;;;;;5.70;5.27;;;;;20.00;101203.00;;;;2070308;28;20217;-46
2022/05/01 04:36:33;;;;;;;5.80;5.30;;;;;20.00;101212.00;;;;2070884;28;20280;-47
2022/05/01 04:37:34;;;;;;;5.80;5.40;;;;;20.00;101215.00;;;;2069633;28;20279;-46
2022/05/01 04:38:34;;;;;;;5.60;5.10;;;;;20.00;101206.00;;;;2071321;28;20687;-46
2022/05/01 04:39:34;;;;;;;5.93;5.40;;;;;20.00;101204.00;;;;2071022;28;20292;-46
2022/05/01 04:40:36;;;;;;;6.03;5.43;;;;;20.00;101196.00;;;;2070966;28;20257;-46
2022/05/01 04:41:37;;;;;;;5.43;5.03;;;;;20.00;101211.00;;;;2070976;28;20983;-46
2022/05/01 04:42:38;;;;;;;6.20;5.60;;;;;20.00;101197.00;;;;2070942;28;20226;-46
2022/05/01 04:43:40;;;;;;;5.80;5.40;;;;;20.00;101203.00;;;;2071601;28;20586;-46
2022/05/01 04:44:41;;;;;;;5.70;5.25;;;;;20.00;101205.00;;;;2071539;28;20687;-46
2022/05/01 04:45:42;;;;;;;6.67;6.07;;;;;20.00;101204.00;;;;2070627;28;20222;-47
2022/05/01 04:46:43;;;;;;;5.53;5.13;;;;;20.00;101206.00;;;;2071743;28;20214;-46
2022/05/01 04:47:45;;;;;;;5.72;5.22;;;;;20.00;101208.00;;;;2071550;28;20499;-46
2022/05/01 04:48:45;;;;;;;5.20;4.75;;;;;20.00;101203.00;;;;2071464;28;20221;-46
2022/05/01 04:49:46;;;;;;;6.00;5.50;;;;;20.00;101203.00;;;;2071460;28;20230;-46
2022/05/01 04:50:46;;;;;;;5.87;5.37;;;;;19.90;101208.00;;;;2071156;28;20260;-47
2022/05/01 04:51:47;;;;;;;5.73;5.23;;;;;20.00;101198.00;;;;2071353;28;20218;-46
2022/05/01 04:52:47;;;;;;;6.77;6.13;;;;;19.90;101208.00;;;;2070986;28;21776;-47
2022/05/01 04:53:47;;;;;;;6.10;5.60;;;;;20.00;101210.00;;;;2070878;28;20226;-47
2022/05/01 04:54:48;;;;;;;5.63;5.13;;;;;20.00;101204.00;;;;2068693;28;20237;-46
2022/05/01 04:55:48;;;;;;;5.10;4.70;;;;;19.90;101201.00;;;;2070142;28;20328;-46
2022/05/01 04:57:09;;;;;;;5.83;5.23;;;;;19.90;101199.00;;;;2070869;28;20230;-46
2022/05/01 04:58:10;;;;;;;6.07;5.57;;;;;19.90;101206.00;;;;2078291;28;20216;-46
2022/05/01 04:59:10;;;;;;;5.90;5.30;;;;;20.00;101205.00;;;;2079048;28;20440;-46
2022/05/01 05:00:11;;;;;;;5.23;4.83;;;;;19.90;101201.00;;;;2078951;28;20206;-46
2022/05/01 05:01:11;;;;;;;5.97;5.47;;;;;19.90;101205.00;;;;2079383;28;20259;-47
2022/05/01 05:02:11;;;;;;;5.70;5.20;;;;;19.90;101207.00;;;;2076756;28;20301;-47
2022/05/01 05:03:12;;;;;;;5.50;5.10;;;;;19.90;101210.00;;;;2071580;28;20272;-46
2022/05/01 05:04:13;;;;;;;5.37;4.87;;;;;19.90;101205.00;;;;2071182;28;20217;-46
2022/05/01 05:05:13;;;;;;;5.77;5.37;;;;;19.90;101208.00;;;;2070125;28;20220;-46
2022/05/01 05:06:13;;;;;;;6.00;5.40;;;;;19.90;101207.00;;;;2070649;28;20301;-47
2022/05/01 05:07:14;;;;;;;6.07;5.57;;;;;20.00;101203.00;;;;2071390;28;20707;-46
2022/05/01 05:10:51;;;;;;;5.15;4.75;;;;;19.90;101207.00;;;;2071235;28;20245;-50
2022/05/01 05:11:52;;;;;;;5.30;4.90;;;;;19.90;101216.00;;;;2071277;28;20309;-46
2022/05/01 05:12:52;;;;;;;6.00;5.50;;;;;19.90;101213.00;;;;2071510;28;20218;-46
2022/05/01 05:13:52;;;;;;;6.37;5.87;;;;;19.90;101207.00;;;;2074296;28;20264;-46
2022/05/01 05:14:55;;;;;;;5.70;5.03;;;;;19.90;101215.00;;;;2079522;28;20253;-46
2022/05/01 05:15:58;;;;;;;10.65;6.13;;;;;19.90;101212.00;;;;2078109;28;20217;-46
2022/05/01 05:16:59;;;;;;;5.28;4.85;;;;;19.90;101211.00;;;;2073273;28;20242;-46